createdAt,value
2019-04-16T00:01:24.706Z,76.25
2019-04-16T00:02:56.079Z,76.41
2019-04-16T00:04:29.895Z,76.36
2019-04-16T00:06:03.893Z,76.43
2019-04-16T00:07:32.622Z,76.59
2019-04-16T00:09:03.413Z,76.71
2019-04-16T00:10:32.132Z,76.87
2019-04-16T00:12:00.864Z,76.99
2019-04-16T00:13:29.647Z,76.75
2019-04-16T00:14:58.373Z,76.72
2019-04-16T00:16:27.894Z,76.88
2019-04-16T00:17:58.123Z,76.9
2019-04-16T00:19:27.747Z,76.9
2019-04-16T00:20:56.456Z,76.8
2019-04-16T00:22:25.497Z,76.86
2019-04-16T00:23:55.259Z,76.98
2019-04-16T00:25:23.999Z,77.07
2019-04-16T00:27:00.091Z,77.09
2019-04-16T00:28:31.591Z,77.17
2019-04-16T00:30:05.837Z,77.36
2019-04-16T00:31:37.864Z,77.57
2019-04-16T00:33:11.602Z,77.74
2019-04-16T00:34:45.530Z,77.92
2019-04-16T00:36:18.883Z,77.95
2019-04-16T00:37:52.508Z,77.95
2019-04-16T00:39:25.720Z,78.03
2019-04-16T00:40:54.464Z,77.97
2019-04-16T00:42:23.214Z,77.99
2019-04-16T00:43:51.979Z,78.15
2019-04-16T00:45:20.699Z,78.21
2019-04-16T00:46:49.491Z,78.21
2019-04-16T00:48:18.216Z,78.37
2019-04-16T00:49:47.013Z,78.33
2019-04-16T00:51:15.918Z,78.03
2019-04-16T00:52:45.336Z,77.7
2019-04-16T00:54:16.451Z,77.91
2019-04-16T00:55:49.988Z,78.2
2019-04-16T00:57:22.934Z,78.1
2019-04-16T00:58:56.772Z,78.13
2019-04-16T01:00:31.435Z,78.24
2019-04-16T01:02:00.459Z,78.27
2019-04-16T01:03:30.056Z,78.43
2019-04-16T01:04:58.780Z,78.44
2019-04-16T01:06:27.587Z,78.41
2019-04-16T01:07:56.622Z,78.52
2019-04-16T01:09:25.361Z,78.82
2019-04-16T01:10:54.136Z,78.98
2019-04-16T01:12:22.857Z,78.99
2019-04-16T01:13:56.304Z,79.01
2019-04-16T01:15:26.065Z,79.07
2019-04-16T01:16:54.771Z,79.02
2019-04-16T01:18:23.494Z,79.09
2019-04-16T01:19:52.238Z,79.02
2019-04-16T01:21:21.169Z,78.89
2019-04-16T01:22:52.617Z,79.16
2019-04-16T01:24:24.934Z,79.31
2019-04-16T01:25:56.313Z,79.12
2019-04-16T01:27:29.424Z,79.3
2019-04-16T01:29:04.403Z,79.4
2019-04-16T01:30:37.288Z,79.43
2019-04-16T01:32:12.164Z,79.63
2019-04-16T01:33:47.378Z,79.49
2019-04-16T01:35:19.930Z,79.47
2019-04-16T01:36:53.944Z,79.47
2019-04-16T01:38:28.754Z,79.83
2019-04-16T01:39:58.494Z,80.02
2019-04-16T01:41:28.065Z,80.09
2019-04-16T01:42:59.944Z,80.03
2019-04-16T01:44:29.875Z,80.09
2019-04-16T01:46:02.915Z,80.36
2019-04-16T01:47:37.411Z,80.41
2019-04-16T01:49:11.596Z,80.49
2019-04-16T01:50:44.571Z,80.53
2019-04-16T01:52:13.332Z,80.56
2019-04-16T01:53:42.062Z,80.51
2019-04-16T01:55:10.787Z,80.69
2019-04-16T01:56:39.500Z,80.79
2019-04-16T01:58:09.095Z,80.77
2019-04-16T01:59:40.771Z,80.85
2019-04-16T02:01:12.517Z,80.87
2019-04-16T02:02:47.158Z,81.01
2019-04-16T02:04:20.671Z,81.04
2019-04-16T02:05:49.398Z,80.95
2019-04-16T02:07:18.137Z,81.03
2019-04-16T02:08:47.067Z,81.08
2019-04-16T02:10:15.976Z,80.97
2019-04-16T02:11:46.635Z,81.02
2019-04-16T02:13:20.092Z,81.23
2019-04-16T02:14:51.319Z,81.07
2019-04-16T02:16:26.120Z,81.28
2019-04-16T02:18:00.033Z,81.26
2019-04-16T02:19:33.697Z,81.36
2019-04-16T02:21:02.458Z,81.4
2019-04-16T02:22:32.057Z,81.29
2019-04-16T02:24:01.271Z,80.93
2019-04-16T02:25:30.051Z,80.85
2019-04-16T02:27:00.533Z,80.78
2019-04-16T02:28:33.260Z,80.91
2019-04-16T02:30:06.964Z,81.04
2019-04-16T02:31:35.742Z,81.29
2019-04-16T02:33:04.634Z,81.48
2019-04-16T02:34:33.499Z,81.4
2019-04-16T02:36:02.775Z,81.27
2019-04-16T02:37:37.774Z,81.2
2019-04-16T02:39:07.118Z,81.28
2019-04-16T02:40:35.910Z,81.31
2019-04-16T02:42:05.994Z,81.23
2019-04-16T02:43:41.400Z,81.36
2019-04-16T02:45:11.167Z,81.49
2019-04-16T02:46:39.901Z,81.39
2019-04-16T02:48:17.458Z,81.52
2019-04-16T02:49:46.233Z,81.3
2019-04-16T02:51:15.027Z,81.06
2019-04-16T02:52:52.617Z,81.04
2019-04-16T02:54:21.509Z,81.01
2019-04-16T02:55:50.301Z,80.93
2019-04-16T02:57:28.062Z,81.05
2019-04-16T02:58:56.854Z,81.08
2019-04-16T03:00:26.467Z,81.03
2019-04-16T03:01:57.673Z,80.85
2019-04-16T03:03:29.731Z,80.82
2019-04-16T03:05:03.662Z,81.12
2019-04-16T03:06:36.926Z,81.3
2019-04-16T03:08:09.578Z,81.22
2019-04-16T03:09:41.177Z,81.37
2019-04-16T03:11:10.010Z,81.56
2019-04-16T03:12:39.959Z,81.8
2019-04-16T03:14:09.100Z,82.05
2019-04-16T03:15:38.864Z,82.03
2019-04-16T03:17:11.902Z,82.07
2019-04-16T03:18:40.888Z,82.27
2019-04-16T03:20:09.649Z,82.38
2019-04-16T03:21:38.370Z,82.51
2019-04-16T03:23:11.660Z,82.58
2019-04-16T03:24:42.772Z,82.69
2019-04-16T03:26:18.375Z,82.75
2019-04-16T03:27:48.066Z,82.86
2019-04-16T03:29:16.936Z,82.92
2019-04-16T03:30:49.041Z,82.96
2019-04-16T03:32:20.074Z,82.99
2019-04-16T03:33:55.747Z,83.04
2019-04-16T03:35:30.690Z,83.19
2019-04-16T03:37:03.539Z,83.28
2019-04-16T03:38:42.181Z,83.36
2019-04-16T03:40:26.230Z,83.33
2019-04-16T03:41:56.972Z,83.34
2019-04-16T03:43:25.818Z,83.38
2019-04-16T03:44:54.940Z,83.34
2019-04-16T03:46:24.309Z,83.25
2019-04-16T03:47:56.223Z,83.17
2019-04-16T03:49:28.644Z,83.21
2019-04-16T03:50:57.583Z,83.23
2019-04-16T03:52:27.412Z,83.4
2019-04-16T03:53:56.208Z,83.48
2019-04-16T03:55:30.382Z,83.61
2019-04-16T03:57:03.040Z,83.64
2019-04-16T03:58:31.897Z,83.68
2019-04-16T04:00:01.163Z,83.72
2019-04-16T04:01:29.893Z,83.78
2019-04-16T04:03:00.384Z,83.85
2019-04-16T04:04:34.374Z,83.93
2019-04-16T04:06:07.921Z,83.92
2019-04-16T04:07:38.481Z,84.02
2019-04-16T04:09:07.558Z,84.04
2019-04-16T04:10:41.736Z,84.06
2019-04-16T04:12:14.728Z,84.1
2019-04-16T04:13:51.043Z,84.05
2019-04-16T04:15:20.143Z,83.87
2019-04-16T04:16:48.942Z,83.58
2019-04-16T04:18:18.504Z,83.3
2019-04-16T04:19:51.227Z,83.26
2019-04-16T04:21:22.832Z,83.14
2019-04-16T04:22:51.570Z,83.03
2019-04-16T04:24:21.335Z,82.96
2019-04-16T04:25:50.135Z,82.87
2019-04-16T04:27:23.249Z,82.84
2019-04-16T04:28:56.382Z,82.72
2019-04-16T04:30:29.751Z,82.7
2019-04-16T04:32:04.409Z,82.62
2019-04-16T04:33:33.175Z,82.55
2019-04-16T04:35:01.980Z,82.58
2019-04-16T04:36:33.271Z,82.49
2019-04-16T04:38:05.162Z,82.43
2019-04-16T04:39:34.127Z,82.32
2019-04-16T04:41:06.350Z,82.38
2019-04-16T04:42:36.142Z,82.48
2019-04-16T04:44:09.104Z,82.58
2019-04-16T04:45:41.630Z,82.57
2019-04-16T04:47:10.774Z,82.46
2019-04-16T04:48:40.373Z,82.33
2019-04-16T04:50:10.852Z,82.19
2019-04-16T04:51:43.915Z,82.2
2019-04-16T04:53:20.110Z,82.3
2019-04-16T04:54:54.877Z,82.41
2019-04-16T04:56:28.757Z,82.43
2019-04-16T04:58:03.586Z,82.59
2019-04-16T04:59:37.598Z,82.48
2019-04-16T05:01:06.381Z,82.55
2019-04-16T05:02:35.101Z,82.6
2019-04-16T05:04:07.178Z,82.59
2019-04-16T05:05:37.259Z,82.5
2019-04-16T05:07:05.983Z,82.61
2019-04-16T05:08:35.404Z,82.69
2019-04-16T05:10:08.471Z,82.77
2019-04-16T05:11:37.571Z,82.69
2019-04-16T05:13:06.288Z,82.8
2019-04-16T05:14:35.028Z,82.74
2019-04-16T05:16:07.676Z,82.73
2019-04-16T05:17:39.485Z,82.79
2019-04-16T05:19:16.028Z,82.81
2019-04-16T05:20:47.755Z,82.78
2019-04-16T05:22:22.413Z,82.78
2019-04-16T05:23:51.268Z,82.71
2019-04-16T05:25:20.555Z,82.66
2019-04-16T05:26:51.169Z,82.8
2019-04-16T05:28:19.894Z,82.89
2019-04-16T05:29:49.816Z,82.95
2019-04-16T05:31:26.294Z,82.94
2019-04-16T05:32:55.014Z,82.87
2019-04-16T05:34:25.502Z,82.74
2019-04-16T05:35:54.289Z,82.69
2019-04-16T05:37:25.324Z,82.53
2019-04-16T05:38:56.615Z,82.31
2019-04-16T05:40:35.333Z,82.44
2019-04-16T05:42:04.126Z,82.26
2019-04-16T05:43:35.886Z,81.99
2019-04-16T05:45:07.663Z,81.87
2019-04-16T05:46:44.488Z,81.84
2019-04-16T05:48:15.011Z,81.43
2019-04-16T05:49:43.729Z,81.66
2019-04-16T05:51:12.739Z,81.68
2019-04-16T05:52:41.811Z,81.58
2019-04-16T05:54:16.689Z,81.49
2019-04-16T05:55:50.701Z,81.45
2019-04-16T05:57:19.489Z,81.55
2019-04-16T05:58:49.485Z,81.52
2019-04-16T06:00:18.414Z,81.55
2019-04-16T06:01:50.464Z,81.51
2019-04-16T06:03:22.729Z,81.45
2019-04-16T06:04:56.670Z,81.37
2019-04-16T06:06:25.408Z,81.15
2019-04-16T06:07:55.145Z,80.92
2019-04-16T06:09:24.450Z,80.77
2019-04-16T06:10:57.993Z,80.42
2019-04-16T06:12:26.928Z,80.34
2019-04-16T06:13:56.847Z,80.29
2019-04-16T06:15:27.489Z,79.97
2019-04-16T06:17:01.662Z,79.65
2019-04-16T06:18:30.377Z,79.78
2019-04-16T06:19:59.970Z,79.54
2019-04-16T06:21:31.582Z,79.01
2019-04-16T06:23:05.821Z,78.83
2019-04-16T06:24:36.264Z,78.36
2019-04-16T06:26:05.177Z,78.13
2019-04-16T06:27:33.906Z,78.06
2019-04-16T06:29:05.256Z,77.93
2019-04-16T06:30:38.303Z,77.27
2019-04-16T06:32:12.264Z,76.74
2019-04-16T06:33:41.124Z,76.66
2019-04-16T06:35:09.895Z,76.07
2019-04-16T06:36:39.426Z,76.01
2019-04-16T06:38:08.218Z,75.72
2019-04-16T06:39:36.936Z,74.95
2019-04-16T06:41:09.200Z,75.1
2019-04-16T06:42:38.858Z,74.99
2019-04-16T06:44:09.194Z,74.73
2019-04-16T06:45:41.757Z,74.24
2019-04-16T06:47:12.006Z,74
2019-04-16T06:48:46.745Z,73.66
2019-04-16T06:50:39.503Z,73.35
2019-04-16T06:52:09.415Z,72.74
2019-04-16T06:53:38.133Z,72.54
2019-04-16T06:55:09.336Z,72.37
2019-04-16T06:56:45.118Z,71.71
2019-04-16T06:58:18.788Z,71.83
2019-04-16T06:59:48.455Z,71.71
2019-04-16T07:01:18.058Z,71.32
2019-04-16T07:03:03.158Z,71.13
2019-04-16T07:04:35.621Z,71.12
2019-04-16T07:06:09.099Z,71.15
2019-04-16T07:07:47.168Z,70.87
2019-04-16T07:09:16.277Z,70.41
2019-04-16T07:10:49.986Z,70.85
2019-04-16T07:12:18.778Z,70.5
2019-04-16T07:13:48.158Z,70.82
2019-04-16T07:15:28.361Z,70.36
2019-04-16T07:17:01.069Z,69.77
2019-04-16T07:18:30.084Z,68.98
2019-04-16T07:19:59.011Z,68.5
2019-04-16T07:21:27.907Z,68.77
2019-04-16T07:22:58.545Z,68.98
2019-04-16T07:24:37.459Z,68.35
2019-04-16T07:26:15.571Z,68.33
2019-04-16T07:27:45.261Z,68.2
2019-04-16T07:29:15.854Z,67.61
2019-04-16T07:30:46.428Z,67.18
2019-04-16T07:32:15.784Z,67.12
2019-04-16T07:33:45.435Z,67.01
2019-04-16T07:35:14.220Z,67.18
2019-04-16T07:36:43.107Z,66.72
2019-04-16T07:38:12.625Z,66.32
2019-04-16T07:39:42.868Z,65.94
2019-04-16T07:41:17.437Z,66.01
2019-04-16T07:42:59.564Z,66.32
2019-04-16T07:44:29.338Z,65.16
2019-04-16T07:45:58.943Z,65.83
2019-04-16T07:47:27.756Z,65.64
2019-04-16T07:48:59.425Z,64.88
2019-04-16T07:50:33.354Z,65.68
2019-04-16T07:52:12.214Z,64.84
2019-04-16T07:53:41.105Z,65.35
2019-04-16T07:55:09.835Z,64.22
2019-04-16T07:56:38.549Z,63.82
2019-04-16T07:58:07.478Z,64.28
2019-04-16T07:59:37.896Z,64.55
2019-04-16T08:01:16.573Z,63.93
2019-04-16T08:02:45.450Z,63.94
2019-04-16T08:04:18.786Z,63.47
2019-04-16T08:05:52.100Z,63.08
2019-04-16T08:07:25.495Z,62.86
2019-04-16T08:08:58.635Z,62.15
2019-04-16T08:10:27.435Z,62.8
2019-04-16T08:11:56.210Z,62.72
2019-04-16T08:13:24.943Z,62.94
2019-04-16T08:14:53.654Z,62.81
2019-04-16T08:16:23.257Z,62.8
2019-04-16T08:17:51.976Z,62.5
2019-04-16T08:19:35.679Z,62.11
2019-04-16T08:21:13.976Z,61.5
2019-04-16T08:22:48.301Z,61.01
2019-04-16T08:24:17.013Z,61.18
2019-04-16T08:25:46.059Z,60.82
2019-04-16T08:27:19.676Z,60.04
2019-04-16T08:28:48.532Z,60.46
2019-04-16T08:30:17.335Z,59.72
2019-04-16T08:31:49.569Z,59.55
2019-04-16T08:33:18.608Z,59.95
2019-04-16T08:34:47.658Z,59.06
2019-04-16T08:36:16.771Z,58.17
2019-04-16T08:37:54.210Z,57.76
2019-04-16T08:39:23.331Z,56.97
2019-04-16T08:40:53.007Z,56.85
2019-04-16T08:42:33.751Z,56.53
2019-04-16T08:44:15.337Z,56.82
2019-04-16T08:45:45.099Z,56.42
2019-04-16T08:47:17.892Z,56.12
2019-04-16T08:48:54.333Z,56.06
2019-04-16T08:50:27.074Z,56.25
2019-04-16T08:51:55.810Z,55.83
2019-04-16T08:53:24.527Z,56.28
2019-04-16T08:54:55.966Z,56.2
2019-04-16T08:56:24.772Z,56.16
2019-04-16T08:57:53.505Z,55.88
2019-04-16T08:59:22.687Z,55.49
2019-04-16T09:00:52.771Z,56.01
2019-04-16T09:02:27.412Z,55.09
2019-04-16T09:04:03.293Z,54.69
2019-04-16T09:05:32.050Z,54.68
2019-04-16T09:07:20.902Z,55.19
2019-04-16T09:08:53.981Z,55.02
2019-04-16T09:10:31.235Z,54.39
2019-04-16T09:11:59.976Z,54.02
2019-04-16T09:13:28.693Z,53.84
2019-04-16T09:15:01.260Z,53.16
2019-04-16T09:16:29.980Z,52.58
2019-04-16T09:17:58.703Z,52.17
2019-04-16T09:19:27.923Z,52.09
2019-04-16T09:20:56.694Z,52.34
2019-04-16T09:22:25.414Z,52.38
2019-04-16T09:24:09.157Z,52.01
2019-04-16T09:25:39.170Z,51.57
2019-04-16T09:27:08.054Z,51.64
2019-04-16T09:28:37.168Z,51.65
2019-04-16T09:30:05.892Z,50.98
2019-04-16T09:31:34.631Z,51.39
2019-04-16T09:33:06.854Z,51.04
2019-04-16T09:34:40.530Z,50.88
2019-04-16T09:36:09.252Z,50.74
2019-04-16T09:37:41.010Z,50.82
2019-04-16T09:39:09.897Z,50.43
2019-04-16T09:40:38.943Z,50.47
2019-04-16T09:42:07.659Z,50.48
2019-04-16T09:43:40.559Z,50.16
2019-04-16T09:45:10.769Z,49.92
2019-04-16T09:47:00.667Z,49.82
2019-04-16T09:48:35.686Z,49.34
2019-04-16T09:50:11.649Z,48.55
2019-04-16T09:51:40.450Z,48.59
2019-04-16T09:53:09.439Z,48.05
2019-04-16T09:54:38.309Z,48.02
2019-04-16T09:56:07.019Z,48.33
2019-04-16T09:57:37.423Z,48.03
2019-04-16T09:59:07.111Z,46.99
2019-04-16T10:00:36.003Z,46.44
2019-04-16T10:02:04.776Z,46.81
2019-04-16T10:03:34.057Z,46.68
2019-04-16T10:05:02.798Z,47.12
2019-04-16T10:06:32.452Z,47.1
2019-04-16T10:08:02.296Z,46.65
2019-04-16T10:09:31.249Z,46.97
2019-04-16T10:11:06.727Z,45.27
2019-04-16T10:12:35.681Z,46
2019-04-16T10:14:04.530Z,45.13
2019-04-16T10:15:33.347Z,45.41
2019-04-16T10:17:03.040Z,44.3
2019-04-16T10:18:36.228Z,43.49
2019-04-16T10:20:05.048Z,43.36
2019-04-16T10:21:34.536Z,43.69
2019-04-16T10:23:04.235Z,43.74
2019-04-16T10:24:33.055Z,43.38
2019-04-16T10:26:01.981Z,43.47
2019-04-16T10:27:32.734Z,43.5
2019-04-16T10:29:01.528Z,43.63
2019-04-16T10:30:30.671Z,43.36
2019-04-16T10:31:59.506Z,43.15
2019-04-16T10:33:28.471Z,43.15
2019-04-16T10:34:57.804Z,43.53
2019-04-16T10:36:26.617Z,43.06
2019-04-16T10:37:55.412Z,42.25
2019-04-16T10:39:24.717Z,42.48
2019-04-16T10:40:53.639Z,42.04
2019-04-16T10:42:22.563Z,42.06
2019-04-16T10:43:51.529Z,41.65
2019-04-16T10:45:20.319Z,41.73
2019-04-16T10:46:50.332Z,41.52
2019-04-16T10:48:19.253Z,41.09
2019-04-16T10:49:48.547Z,40.79
2019-04-16T10:51:20.551Z,40.8
2019-04-16T10:52:56.224Z,40.71
2019-04-16T10:54:25.213Z,40.23
2019-04-16T10:55:54.048Z,40.33
2019-04-16T10:57:22.901Z,40.37
2019-04-16T10:58:51.830Z,40.74
2019-04-16T11:00:20.695Z,40.9
2019-04-16T11:01:49.769Z,40.69
2019-04-16T11:03:18.680Z,40.15
2019-04-16T11:04:48.961Z,39.3
2019-04-16T11:06:17.769Z,38.86
2019-04-16T11:07:46.578Z,39.57
2019-04-16T11:09:15.759Z,40.09
2019-04-16T11:10:45.057Z,40.28
2019-04-16T11:12:14.739Z,38.93
2019-04-16T11:14:00.711Z,38.97
2019-04-16T11:15:29.608Z,38.73
2019-04-16T11:16:58.463Z,38.85
2019-04-16T11:18:27.254Z,39.12
2019-04-16T11:20:00.542Z,39.36
2019-04-16T11:21:29.409Z,39.05
2019-04-16T11:22:58.185Z,39
2019-04-16T11:24:27.023Z,38.73
2019-04-16T11:25:56.763Z,37.79
2019-04-16T11:27:25.574Z,38.48
2019-04-16T11:28:54.393Z,38.51
2019-04-16T11:30:23.297Z,39.03
2019-04-16T11:31:53.111Z,38.01
2019-04-16T11:33:22.089Z,37.99
2019-04-16T11:34:51.785Z,38.53
2019-04-16T11:36:31.928Z,38.59
2019-04-16T11:38:00.814Z,38.15
2019-04-16T11:39:29.769Z,37.84
2019-04-16T11:40:59.625Z,37.79
2019-04-16T11:42:28.976Z,36.72
2019-04-16T11:43:58.103Z,36.52
2019-04-16T11:45:27.960Z,36.63
2019-04-16T11:46:56.802Z,36.82
2019-04-16T11:48:25.661Z,37.38
2019-04-16T11:49:54.499Z,37.38
2019-04-16T11:51:23.400Z,35.61
2019-04-16T11:52:58.743Z,35.3
2019-04-16T11:54:27.619Z,35.84
2019-04-16T11:55:56.564Z,35.56
2019-04-16T11:57:25.419Z,35.9
2019-04-16T11:58:58.009Z,35.97
2019-04-16T12:00:26.858Z,35.45
2019-04-16T12:01:55.786Z,36.19
2019-04-16T12:03:24.618Z,35.63
2019-04-16T12:04:59.704Z,35.58
2019-04-16T12:06:33.880Z,35.55
2019-04-16T12:08:02.770Z,35.25
2019-04-16T12:09:32.564Z,35.43
2019-04-16T12:11:02.526Z,35.58
2019-04-16T12:12:31.459Z,35.08
2019-04-16T12:14:00.532Z,34.87
2019-04-16T12:15:29.310Z,34.34
2019-04-16T12:16:58.330Z,33.9
2019-04-16T12:18:32.520Z,34.12
2019-04-16T12:20:02.137Z,34.05
2019-04-16T12:21:32.169Z,33.74
2019-04-16T12:23:02.304Z,33.57
2019-04-16T12:24:31.099Z,33.44
2019-04-16T12:26:00.066Z,33.12
2019-04-16T12:27:28.989Z,33.2
2019-04-16T12:28:57.834Z,33.18
2019-04-16T12:30:26.738Z,33.13
2019-04-16T12:31:57.215Z,33.08
2019-04-16T12:33:26.144Z,32.94
2019-04-16T12:34:56.592Z,32.98
2019-04-16T12:36:25.491Z,32.98
2019-04-16T12:37:54.804Z,33.55
2019-04-16T12:39:24.986Z,34.09
2019-04-16T12:40:53.828Z,34.17
2019-04-16T12:42:22.727Z,33.81
2019-04-16T12:43:56.080Z,33.69
2019-04-16T12:45:25.193Z,33.48
2019-04-16T12:46:54.061Z,33.95
2019-04-16T12:48:22.931Z,34.03
2019-04-16T12:49:51.873Z,34.95
2019-04-16T12:51:20.757Z,34
2019-04-16T12:52:55.968Z,34.24
2019-04-16T12:54:26.472Z,34.12
2019-04-16T12:55:55.380Z,33.93
2019-04-16T12:57:24.224Z,34.19
2019-04-16T12:58:55.733Z,33.9
2019-04-16T13:00:31.853Z,33.06
2019-04-16T13:02:00.895Z,33.08
2019-04-16T13:03:29.645Z,33.23
2019-04-16T13:04:59.170Z,32.85
2019-04-16T13:06:31.335Z,33.39
2019-04-16T13:08:00.668Z,33.32
2019-04-16T13:09:30.373Z,32.9
2019-04-16T13:10:59.086Z,33.35
2019-04-16T13:12:33.134Z,33
2019-04-16T13:14:03.656Z,32.68
2019-04-16T13:15:32.931Z,33.82
2019-04-16T13:17:01.830Z,33.42
2019-04-16T13:18:30.531Z,33.35
2019-04-16T13:20:00.158Z,32.66
2019-04-16T13:21:29.026Z,32.66
2019-04-16T13:22:58.537Z,32.92
2019-04-16T13:24:27.913Z,32.86
2019-04-16T13:25:56.700Z,33.63
2019-04-16T13:27:26.848Z,32.87
2019-04-16T13:29:00.395Z,32.41
2019-04-16T13:30:29.181Z,32.81
2019-04-16T13:31:57.991Z,32.64
2019-04-16T13:33:26.781Z,32.97
2019-04-16T13:34:58.422Z,32.29
2019-04-16T13:36:32.191Z,32.45
2019-04-16T13:38:00.944Z,32.29
2019-04-16T13:39:29.890Z,32.79
2019-04-16T13:41:02.827Z,33.15
2019-04-16T13:42:31.577Z,32.27
2019-04-16T13:44:10.032Z,31.87
2019-04-16T13:45:38.776Z,32.21
2019-04-16T13:47:09.016Z,32.81
2019-04-16T13:48:37.742Z,32.2
2019-04-16T13:50:09.329Z,31.51
2019-04-16T13:51:38.068Z,31.14
2019-04-16T13:53:06.848Z,31.3
2019-04-16T13:54:40.616Z,31.59
2019-04-16T13:56:09.334Z,31.35
2019-04-16T13:57:38.054Z,31.49
2019-04-16T13:59:06.846Z,32.29
2019-04-16T14:00:37.262Z,32.03
2019-04-16T14:02:05.971Z,31.7
2019-04-16T14:03:34.770Z,31.89
2019-04-16T14:05:11.886Z,31.89
2019-04-16T14:06:40.710Z,31.41
2019-04-16T14:08:10.804Z,30.5
2019-04-16T14:09:44.616Z,31.02
2019-04-16T14:11:20.534Z,31.2
2019-04-16T14:12:50.134Z,30.87
2019-04-16T14:14:23.331Z,31.13
2019-04-16T14:15:52.137Z,30.78
2019-04-16T14:17:23.570Z,30.97
2019-04-16T14:18:52.770Z,31.27
2019-04-16T14:20:21.489Z,31.32
2019-04-16T14:21:50.854Z,31.49
2019-04-16T14:23:20.449Z,31.9
2019-04-16T14:24:50.056Z,31.33
2019-04-16T14:26:18.780Z,31.61
2019-04-16T14:27:47.503Z,31.21
2019-04-16T14:29:16.217Z,30.7
2019-04-16T14:30:48.443Z,30.48
2019-04-16T14:32:17.171Z,30.89
2019-04-16T14:33:45.896Z,30.79
2019-04-16T14:35:14.615Z,30.97
2019-04-16T14:36:43.749Z,30.77
2019-04-16T14:38:12.552Z,30.48
2019-04-16T14:39:41.415Z,30.69
2019-04-16T14:41:16.193Z,30.23
2019-04-16T14:42:44.948Z,30.3
2019-04-16T14:44:14.785Z,30.72
2019-04-16T14:46:01.907Z,30.63
2019-04-16T14:47:38.206Z,30.47
2019-04-16T14:49:07.090Z,30.99
2019-04-16T14:50:38.219Z,30.56
2019-04-16T14:52:08.703Z,30.75
2019-04-16T14:53:37.415Z,31.03
2019-04-16T14:55:06.215Z,31.44
2019-04-16T14:56:34.941Z,31.15
2019-04-16T14:58:03.661Z,30.04
2019-04-16T14:59:39.512Z,30.56
2019-04-16T15:01:08.287Z,30.34
2019-04-16T15:02:37.024Z,30.7
2019-04-16T15:04:05.892Z,30.93
2019-04-16T15:05:34.772Z,30.83
2019-04-16T15:07:34.447Z,30.72
2019-04-16T15:09:25.356Z,30.56
2019-04-16T15:13:07.799Z,30.18
2019-04-16T15:20:09.677Z,30.33
2019-04-16T15:21:44.302Z,30.32
2019-04-16T15:23:13.008Z,30.23
2019-04-16T15:24:41.742Z,30.85
2019-04-16T15:26:10.453Z,30.35
2019-04-16T15:27:39.177Z,30.51
2019-04-16T15:29:07.899Z,30.13
2019-04-16T15:30:36.613Z,30.4
2019-04-16T15:32:09.574Z,30.49
2019-04-16T15:33:40.952Z,30.9
2019-04-16T15:35:15.163Z,31.23
2019-04-16T15:36:44.018Z,30.59
2019-04-16T15:38:14.304Z,30.81
2019-04-16T15:39:43.019Z,30.71
2019-04-16T15:41:17.951Z,30.76
2019-04-16T15:42:49.113Z,30.49
2019-04-16T15:44:24.120Z,30.57
2019-04-16T15:45:52.872Z,30.56
2019-04-16T15:47:21.818Z,30.85
2019-04-16T15:48:55.579Z,30.97
2019-04-16T15:50:24.416Z,31.24
2019-04-16T15:51:56.551Z,31.23
2019-04-16T15:53:25.360Z,31.27
2019-04-16T15:54:54.948Z,31.11
2019-04-16T15:56:24.294Z,30.76
2019-04-16T15:57:53.011Z,30.65
2019-04-16T15:59:22.617Z,31.46
2019-04-16T16:00:51.339Z,31.49
2019-04-16T16:02:20.050Z,31.37
2019-04-16T16:03:48.782Z,31.04
2019-04-16T16:05:18.541Z,31.98
2019-04-16T16:06:53.266Z,31.96
2019-04-16T16:08:22.137Z,31.76
2019-04-16T16:09:50.863Z,31.49
2019-04-16T16:11:22.461Z,31.27
2019-04-16T16:12:54.643Z,31.6
2019-04-16T16:14:24.379Z,31.34
2019-04-16T16:15:53.169Z,31.67
2019-04-16T16:17:27.114Z,31.42
2019-04-16T16:18:56.058Z,31.39
2019-04-16T16:20:24.770Z,31.69
2019-04-16T16:21:53.488Z,31.86
2019-04-16T16:23:23.021Z,31.83
2019-04-16T16:24:51.827Z,31.8
2019-04-16T16:26:20.614Z,31.43
2019-04-16T16:27:52.220Z,31.6
2019-04-16T16:29:20.932Z,31.79
2019-04-16T16:30:49.669Z,31.41
2019-04-16T16:32:18.458Z,31.09
2019-04-16T16:33:47.170Z,30.71
2019-04-16T16:35:22.141Z,31.26
2019-04-16T16:36:50.856Z,31.51
2019-04-16T16:38:21.355Z,30.96
2019-04-16T16:39:50.146Z,30.85
2019-04-16T16:41:18.941Z,30.99
2019-04-16T16:42:47.655Z,31.7
2019-04-16T16:44:16.396Z,32.02
2019-04-16T16:45:45.338Z,32.05
2019-04-16T16:47:14.055Z,32.24
2019-04-16T16:48:44.541Z,32.1
2019-04-16T16:50:16.531Z,31.94
2019-04-16T16:51:46.142Z,32.25
2019-04-16T16:53:16.146Z,32.85
2019-04-16T16:54:44.857Z,32.29
2019-04-16T16:56:13.913Z,32.72
2019-04-16T16:57:42.850Z,32.57
2019-04-16T16:59:11.581Z,32.02
2019-04-16T17:00:41.097Z,31.81
2019-04-16T17:02:15.332Z,32.18
2019-04-16T17:03:44.060Z,32.01
2019-04-16T17:05:14.699Z,31.91
2019-04-16T17:06:43.418Z,32.85
2019-04-16T17:08:12.218Z,33.04
2019-04-16T17:09:41.011Z,33.17
2019-04-16T17:11:21.578Z,33.2
2019-04-16T17:12:51.577Z,33.43
2019-04-16T17:14:21.667Z,33.51
2019-04-16T17:15:50.375Z,33.07
2019-04-16T17:17:20.292Z,33.61
2019-04-16T17:18:50.778Z,33.81
2019-04-16T17:20:19.584Z,34.26
2019-04-16T17:21:48.291Z,33.94
2019-04-16T17:23:25.881Z,33.92
2019-04-16T17:24:55.493Z,33.96
2019-04-16T17:26:24.246Z,34.27
2019-04-16T17:27:56.863Z,34.65
2019-04-16T17:29:25.594Z,34.92
2019-04-16T17:30:54.541Z,35.37
2019-04-16T17:32:23.256Z,35.88
2019-04-16T17:33:51.974Z,35.75
2019-04-16T17:35:21.132Z,34.9
2019-04-16T17:36:49.911Z,35.54
2019-04-16T17:38:18.700Z,35.65
2019-04-16T17:39:48.451Z,36.04
2019-04-16T17:41:17.172Z,36.44
2019-04-16T17:42:48.531Z,36.54
2019-04-16T17:44:19.911Z,37.28
2019-04-16T17:45:48.692Z,37.61
2019-04-16T17:47:35.914Z,37.78
2019-04-16T17:49:04.868Z,38.56
2019-04-16T17:50:33.596Z,39.25
2019-04-16T17:52:02.391Z,39.42
2019-04-16T17:53:31.174Z,39.71
2019-04-16T17:54:59.884Z,39.96
2019-04-16T17:56:29.577Z,40.32
2019-04-16T17:57:58.697Z,40.41
2019-04-16T17:59:34.375Z,40.6
2019-04-16T18:01:04.338Z,40.71
2019-04-16T18:02:35.972Z,41.22
2019-04-16T18:04:04.693Z,41.23
2019-04-16T18:05:33.424Z,42.1
2019-04-16T18:07:02.857Z,42.68
2019-04-16T18:08:31.570Z,42.49
2019-04-16T18:10:05.814Z,41.87
2019-04-16T18:11:34.533Z,41.7
2019-04-16T18:13:07.740Z,41.85
2019-04-16T18:14:37.414Z,41.76
2019-04-16T18:16:06.343Z,41.93
2019-04-16T18:17:51.477Z,42.12
2019-04-16T18:19:20.456Z,42.42
2019-04-16T18:21:01.890Z,42.42
2019-04-16T18:22:30.620Z,42.9
2019-04-16T18:23:59.420Z,43.45
2019-04-16T18:25:28.771Z,43.33
2019-04-16T18:26:57.502Z,43.44
2019-04-16T18:28:26.214Z,43.91
2019-04-16T18:29:56.789Z,44.67
2019-04-16T18:31:28.546Z,44.55
2019-04-16T18:32:59.499Z,44.69
2019-04-16T18:34:28.371Z,44.94
2019-04-16T18:35:59.311Z,44.89
2019-04-16T18:37:29.893Z,45.01
2019-04-16T18:39:06.004Z,45.45
2019-04-16T18:40:34.785Z,45.54
2019-04-16T18:42:03.516Z,46.2
2019-04-16T18:43:32.300Z,45.92
2019-04-16T18:45:01.738Z,46.25
2019-04-16T18:46:32.230Z,46.53
2019-04-16T18:48:14.354Z,47.09
2019-04-16T18:49:43.096Z,47.97
2019-04-16T18:51:11.819Z,47.86
2019-04-16T18:52:41.899Z,48.03
2019-04-16T18:54:10.834Z,47.91
2019-04-16T18:55:40.943Z,48.21
2019-04-16T18:57:09.912Z,47.85
2019-04-16T18:58:42.093Z,48.62
2019-04-16T19:00:11.749Z,48.74
2019-04-16T19:01:40.467Z,48.11
2019-04-16T19:03:16.052Z,48.27
2019-04-16T19:04:45.110Z,49
2019-04-16T19:06:13.858Z,49.09
2019-04-16T19:07:43.525Z,49.09
2019-04-16T19:09:12.313Z,49.1
2019-04-16T19:10:41.041Z,49.9
2019-04-16T19:12:09.841Z,49.95
2019-04-16T19:13:38.642Z,49.82
2019-04-16T19:15:07.586Z,50.1
2019-04-16T19:16:36.309Z,51.29
2019-04-16T19:18:20.556Z,50.98
2019-04-16T19:19:50.794Z,51.3
2019-04-16T19:21:19.604Z,51.8
2019-04-16T19:22:50.925Z,51.82
2019-04-16T19:24:19.673Z,52.29
2019-04-16T19:25:48.458Z,52.4
2019-04-16T19:27:18.060Z,53.19
2019-04-16T19:28:51.423Z,53.21
2019-04-16T19:30:23.138Z,52.16
2019-04-16T19:31:57.678Z,51.96
2019-04-16T19:33:26.381Z,52.21
2019-04-16T19:35:17.011Z,52.56
2019-04-16T19:36:46.387Z,53.01
2019-04-16T19:38:15.117Z,53.04
2019-04-16T19:39:47.861Z,52.63
2019-04-16T19:41:17.259Z,53.03
2019-04-16T19:42:46.065Z,52.84
2019-04-16T19:44:14.785Z,52.82